createdAt,value
2018-06-13T00:00:40.557Z,0
2018-06-13T00:01:42.218Z,0
2018-06-13T00:02:43.864Z,0
2018-06-13T00:03:45.540Z,0
2018-06-13T00:04:47.189Z,0
2018-06-13T00:05:48.849Z,0
2018-06-13T00:06:50.512Z,0
2018-06-13T00:07:52.161Z,0
2018-06-13T00:08:54.754Z,0
2018-06-13T00:09:56.398Z,0
2018-06-13T00:10:58.059Z,0
2018-06-13T00:11:59.709Z,0
2018-06-13T00:13:01.406Z,0
2018-06-13T00:14:03.067Z,0
2018-06-13T00:15:04.720Z,0
2018-06-13T00:16:06.380Z,0
2018-06-13T00:17:08.041Z,0
2018-06-13T00:18:09.695Z,0
2018-06-13T00:19:11.349Z,0
2018-06-13T00:20:13.000Z,0
2018-06-13T00:21:14.658Z,0
2018-06-13T00:22:16.310Z,0
2018-06-13T00:23:17.957Z,0
2018-06-13T00:24:19.614Z,0
2018-06-13T00:25:21.268Z,0
2018-06-13T00:26:22.941Z,0
2018-06-13T00:27:24.592Z,0
2018-06-13T00:28:26.249Z,0
2018-06-13T00:29:27.899Z,0
2018-06-13T00:30:29.547Z,0
2018-06-13T00:31:31.200Z,0
2018-06-13T00:32:32.854Z,0
2018-06-13T00:33:34.508Z,0
2018-06-13T00:34:36.164Z,0
2018-06-13T00:35:37.824Z,0
2018-06-13T00:36:39.485Z,0
2018-06-13T00:37:41.138Z,0
2018-06-13T00:38:42.796Z,0
2018-06-13T00:39:44.448Z,0
2018-06-13T00:40:46.109Z,0
2018-06-13T00:41:47.758Z,0
2018-06-13T00:42:49.414Z,0
2018-06-13T00:43:51.066Z,0
2018-06-13T00:44:52.727Z,0
2018-06-13T00:45:54.385Z,0
2018-06-13T00:46:56.053Z,0
2018-06-13T00:47:57.707Z,0
2018-06-13T00:48:59.364Z,0
2018-06-13T00:50:01.047Z,0
2018-06-13T00:51:02.700Z,0
2018-06-13T00:52:04.358Z,0
2018-06-13T00:53:06.016Z,0
2018-06-13T00:54:07.659Z,0
2018-06-13T00:55:09.305Z,0
2018-06-13T00:56:10.963Z,0
2018-06-13T00:57:12.619Z,0
2018-06-13T00:58:14.276Z,0
2018-06-13T00:59:15.924Z,0
2018-06-13T01:00:17.602Z,0
2018-06-13T01:01:19.252Z,0
2018-06-13T01:02:20.933Z,0
2018-06-13T01:03:22.569Z,0
2018-06-13T01:04:24.220Z,0
2018-06-13T01:05:25.878Z,0
2018-06-13T01:06:27.536Z,0
2018-06-13T01:07:29.192Z,0
2018-06-13T01:08:30.851Z,0
2018-06-13T01:09:32.506Z,0
2018-06-13T01:10:34.168Z,0
2018-06-13T01:11:35.826Z,0
2018-06-13T01:12:37.476Z,0
2018-06-13T01:13:39.133Z,0
2018-06-13T01:14:40.792Z,0
2018-06-13T01:15:43.326Z,0
2018-06-13T01:16:44.973Z,0
2018-06-13T01:17:46.629Z,0
2018-06-13T01:18:48.288Z,0
2018-06-13T01:19:49.936Z,0
2018-06-13T01:20:51.597Z,0
2018-06-13T01:21:53.254Z,0
2018-06-13T01:22:54.907Z,0
2018-06-13T01:23:56.557Z,0
2018-06-13T01:24:58.209Z,0
2018-06-13T01:25:59.866Z,0
2018-06-13T01:27:01.519Z,0
2018-06-13T01:28:03.166Z,0
2018-06-13T01:29:04.820Z,0
2018-06-13T01:30:06.469Z,0
2018-06-13T01:31:08.119Z,0
2018-06-13T01:32:09.776Z,0
2018-06-13T01:33:11.430Z,0
2018-06-13T01:34:13.089Z,0
2018-06-13T01:35:14.743Z,0
2018-06-13T01:36:16.401Z,0
2018-06-13T01:37:18.051Z,0
2018-06-13T01:38:19.709Z,0
2018-06-13T01:39:21.360Z,0
2018-06-13T01:40:23.029Z,0
2018-06-13T01:41:24.682Z,0
2018-06-13T01:42:26.333Z,0
2018-06-13T01:43:27.983Z,0
2018-06-13T01:44:29.634Z,0
2018-06-13T01:45:31.291Z,0
2018-06-13T01:46:32.951Z,0
2018-06-13T01:47:34.623Z,0
2018-06-13T01:48:36.273Z,0
2018-06-13T01:49:37.928Z,0
2018-06-13T01:50:39.584Z,0
2018-06-13T01:51:41.233Z,0
2018-06-13T01:52:42.882Z,0
2018-06-13T01:53:44.536Z,0
2018-06-13T01:54:46.743Z,0
2018-06-13T02:01:05.401Z,0
2018-06-13T02:02:07.050Z,0
2018-06-13T02:03:58.880Z,0
2018-06-13T02:05:00.560Z,0
2018-06-13T02:06:52.471Z,0
2018-06-13T02:07:54.126Z,0
2018-06-13T02:09:46.025Z,0
2018-06-13T02:10:47.671Z,0
2018-06-13T02:12:39.616Z,0
2018-06-13T02:13:41.261Z,0
2018-06-13T02:14:42.915Z,0
2018-06-13T02:15:44.561Z,0
2018-06-13T02:16:46.213Z,0
2018-06-13T02:17:47.867Z,0
2018-06-13T02:18:49.528Z,0
2018-06-13T02:19:51.182Z,0
2018-06-13T02:20:52.830Z,0
2018-06-13T02:21:54.497Z,0
2018-06-13T02:22:56.138Z,0
2018-06-13T02:23:57.796Z,0
2018-06-13T02:24:59.438Z,0
2018-06-13T02:26:01.120Z,0
2018-06-13T02:27:02.781Z,0
2018-06-13T02:28:04.434Z,0
2018-06-13T02:29:06.088Z,0
2018-06-13T02:30:07.737Z,0
2018-06-13T02:31:09.390Z,0
2018-06-13T02:32:11.058Z,0
2018-06-13T02:33:12.716Z,0
2018-06-13T02:34:14.374Z,0
2018-06-13T02:35:16.030Z,0
2018-06-13T02:36:18.591Z,0
2018-06-13T02:37:20.240Z,0
2018-06-13T02:38:21.897Z,0
2018-06-13T02:39:23.546Z,0
2018-06-13T02:40:25.200Z,0
2018-06-13T02:41:26.867Z,0
2018-06-13T02:42:28.521Z,0
2018-06-13T02:43:30.168Z,0
2018-06-13T02:44:31.831Z,0
2018-06-13T02:45:33.490Z,0
2018-06-13T02:46:35.133Z,0
2018-06-13T02:47:36.787Z,0
2018-06-13T02:48:38.445Z,0
2018-06-13T02:49:41.017Z,0
2018-06-13T02:50:42.666Z,0
2018-06-13T02:51:44.324Z,0
2018-06-13T02:52:45.987Z,0
2018-06-13T02:53:47.628Z,0
2018-06-13T02:54:49.285Z,0
2018-06-13T02:55:50.937Z,0
2018-06-13T02:56:52.587Z,0
2018-06-13T02:57:54.243Z,0
2018-06-13T02:58:55.896Z,0
2018-06-13T02:59:57.564Z,0
2018-06-13T03:00:59.214Z,0
2018-06-13T03:02:00.895Z,0
2018-06-13T03:03:02.560Z,0
2018-06-13T03:04:04.214Z,0
2018-06-13T03:05:05.861Z,0
2018-06-13T03:06:07.518Z,0
2018-06-13T03:07:09.179Z,0
2018-06-13T03:08:10.842Z,0
2018-06-13T03:09:12.498Z,0
2018-06-13T03:10:14.161Z,0
2018-06-13T03:11:15.815Z,0
2018-06-13T03:12:17.469Z,0
2018-06-13T03:13:19.122Z,0
2018-06-13T03:14:20.782Z,0
2018-06-13T03:15:22.431Z,5
2018-06-13T03:16:24.088Z,5
2018-06-13T03:17:25.745Z,5
2018-06-13T03:18:27.394Z,5
2018-06-13T03:19:29.054Z,5
2018-06-13T03:20:30.703Z,5
2018-06-13T03:21:32.363Z,5
2018-06-13T03:22:34.022Z,5
2018-06-13T03:23:35.681Z,5
2018-06-13T03:24:37.338Z,5
2018-06-13T03:25:38.995Z,5
2018-06-13T03:26:40.646Z,5
2018-06-13T03:27:42.310Z,5
2018-06-13T03:28:43.956Z,5
2018-06-13T03:29:45.611Z,5
2018-06-13T03:30:47.271Z,5
2018-06-13T03:31:48.933Z,5
2018-06-13T03:32:50.590Z,10
2018-06-13T03:33:52.240Z,5
2018-06-13T03:34:53.900Z,5
2018-06-13T03:35:55.553Z,5
2018-06-13T03:36:57.214Z,5
2018-06-13T03:37:58.868Z,5
2018-06-13T03:39:00.550Z,5
2018-06-13T03:40:02.207Z,5
2018-06-13T03:41:03.913Z,5
2018-06-13T03:42:05.525Z,5
2018-06-13T03:43:07.182Z,5
2018-06-13T03:44:08.831Z,5
2018-06-13T03:45:10.490Z,5
2018-06-13T03:46:12.141Z,5
2018-06-13T03:47:13.805Z,5
2018-06-13T03:48:15.473Z,10
2018-06-13T03:49:17.124Z,15
2018-06-13T03:50:19.117Z,20
2018-06-13T03:51:20.787Z,20
2018-06-13T03:52:22.440Z,25
2018-06-13T03:53:24.097Z,25
2018-06-13T03:54:26.618Z,30
2018-06-13T03:55:28.277Z,35
2018-06-13T03:56:29.929Z,40
2018-06-13T03:57:31.584Z,45
2018-06-13T03:58:33.243Z,45
2018-06-13T03:59:34.904Z,45
2018-06-13T04:00:36.551Z,45
2018-06-13T04:01:38.207Z,45
2018-06-13T04:02:39.859Z,50
2018-06-13T04:03:41.512Z,50
2018-06-13T04:04:43.168Z,50
2018-06-13T04:05:44.828Z,50
2018-06-13T04:06:46.481Z,50
2018-06-13T04:07:48.138Z,50
2018-06-13T04:08:49.804Z,45
2018-06-13T04:09:51.454Z,45
2018-06-13T04:10:53.111Z,40
2018-06-13T04:11:55.166Z,35
2018-06-13T04:12:56.819Z,35
2018-06-13T04:13:58.476Z,40
2018-06-13T04:15:00.136Z,35
2018-06-13T04:16:01.790Z,35
2018-06-13T04:17:03.443Z,35
2018-06-13T04:18:05.111Z,35
2018-06-13T04:19:06.770Z,35
2018-06-13T04:20:08.441Z,35
2018-06-13T04:21:10.101Z,35
2018-06-13T04:22:11.750Z,40
2018-06-13T04:23:13.413Z,40
2018-06-13T04:24:15.057Z,45
2018-06-13T04:25:16.726Z,45
2018-06-13T04:26:18.389Z,45
2018-06-13T04:27:20.062Z,60
2018-06-13T04:28:21.729Z,80
2018-06-13T04:29:23.383Z,85
2018-06-13T04:30:25.037Z,95
2018-06-13T04:31:26.692Z,105
2018-06-13T04:32:28.353Z,110
2018-06-13T04:33:30.014Z,115
2018-06-13T04:34:31.669Z,125
2018-06-13T04:35:33.331Z,125
2018-06-13T04:36:35.792Z,120
2018-06-13T04:37:36.602Z,105
2018-06-13T04:38:38.268Z,100
2018-06-13T04:39:39.934Z,95
2018-06-13T04:40:41.581Z,90
2018-06-13T04:41:43.243Z,80
2018-06-13T04:42:44.899Z,85
2018-06-13T04:43:46.561Z,80
2018-06-13T04:44:48.227Z,70
2018-06-13T04:45:49.881Z,70
2018-06-13T04:46:51.546Z,70
2018-06-13T04:47:53.201Z,75
2018-06-13T04:48:54.917Z,75
2018-06-13T04:49:56.573Z,75
2018-06-13T04:50:58.228Z,70
2018-06-13T04:51:59.889Z,75
2018-06-13T04:53:01.546Z,80
2018-06-13T04:54:03.206Z,80
2018-06-13T04:55:04.865Z,80
2018-06-13T04:56:06.519Z,85
2018-06-13T04:57:08.176Z,90
2018-06-13T04:58:09.840Z,90
2018-06-13T04:59:11.497Z,80
2018-06-13T05:00:13.152Z,80
2018-06-13T05:01:14.798Z,80
2018-06-13T05:02:16.460Z,85
2018-06-13T05:03:18.140Z,80
2018-06-13T05:04:19.798Z,85
2018-06-13T05:05:21.462Z,85
2018-06-13T05:06:23.128Z,75
2018-06-13T05:07:24.782Z,65
2018-06-13T05:08:26.441Z,55
2018-06-13T05:09:28.100Z,65
2018-06-13T05:10:29.754Z,75
2018-06-13T05:11:31.410Z,80
2018-06-13T05:12:33.699Z,90
2018-06-13T05:13:35.302Z,105
2018-06-13T05:14:37.839Z,105
2018-06-13T05:15:39.401Z,95
2018-06-13T05:16:41.071Z,80
2018-06-13T05:17:42.741Z,70
2018-06-13T05:18:44.406Z,60
2018-06-13T05:19:46.065Z,60
2018-06-13T05:20:47.720Z,60
2018-06-13T05:21:49.378Z,55
2018-06-13T05:22:51.044Z,55
2018-06-13T05:23:52.713Z,60
2018-06-13T05:24:54.362Z,60
2018-06-13T05:25:56.038Z,60
2018-06-13T05:26:57.690Z,60
2018-06-13T05:27:59.341Z,60
2018-06-13T05:29:01.034Z,65
2018-06-13T05:30:02.696Z,65
2018-06-13T05:31:04.368Z,65
2018-06-13T05:32:06.024Z,75
2018-06-13T05:33:07.671Z,70
2018-06-13T05:34:09.331Z,70
2018-06-13T05:35:10.992Z,70
2018-06-13T05:36:12.646Z,75
2018-06-13T05:37:14.312Z,85
2018-06-13T05:38:15.967Z,95
2018-06-13T05:39:17.630Z,100
2018-06-13T05:40:19.299Z,105
2018-06-13T05:41:20.956Z,125
2018-06-13T05:42:22.677Z,110
2018-06-13T05:43:24.336Z,105
2018-06-13T05:44:26.010Z,100
2018-06-13T05:45:27.674Z,110
2018-06-13T05:46:29.329Z,120
2018-06-13T05:47:30.989Z,120
2018-06-13T05:48:32.659Z,110
2018-06-13T05:49:34.311Z,110
2018-06-13T05:50:35.969Z,120
2018-06-13T05:51:37.635Z,130
2018-06-13T05:52:39.315Z,135
2018-06-13T05:53:40.972Z,145
2018-06-13T05:54:42.634Z,160
2018-06-13T05:55:44.305Z,160
2018-06-13T06:01:53.912Z,390
2018-06-13T06:02:55.561Z,425
2018-06-13T06:04:47.466Z,420
2018-06-13T06:05:49.157Z,400
2018-06-13T06:07:41.033Z,360
2018-06-13T06:08:42.719Z,335
2018-06-13T06:10:34.743Z,305
2018-06-13T06:11:36.261Z,295
2018-06-13T06:12:37.928Z,285
2018-06-13T06:13:39.586Z,290
2018-06-13T06:14:41.251Z,280
2018-06-13T06:15:42.932Z,245
2018-06-13T06:16:44.613Z,215
2018-06-13T06:17:46.270Z,215
2018-06-13T06:18:47.935Z,220
2018-06-13T06:19:49.584Z,225
2018-06-13T06:20:51.310Z,230
2018-06-13T06:21:53.096Z,215
2018-06-13T06:22:54.760Z,195
2018-06-13T06:23:56.427Z,185
2018-06-13T06:24:58.907Z,180
2018-06-13T06:26:00.591Z,180
2018-06-13T06:27:02.261Z,195
2018-06-13T06:28:03.919Z,195
2018-06-13T06:29:05.595Z,195
2018-06-13T06:30:07.261Z,215
2018-06-13T06:31:08.929Z,240
2018-06-13T06:32:10.598Z,265
2018-06-13T06:33:12.245Z,300
2018-06-13T06:34:13.912Z,350
2018-06-13T06:35:15.567Z,390
2018-06-13T06:36:17.235Z,430
2018-06-13T06:37:18.902Z,445
2018-06-13T06:38:20.567Z,455
2018-06-13T06:39:22.252Z,430
2018-06-13T06:40:23.912Z,405
2018-06-13T06:41:25.567Z,410
2018-06-13T06:42:27.244Z,420
2018-06-13T06:43:28.905Z,440
2018-06-13T06:44:30.570Z,475
2018-06-13T06:45:32.243Z,520
2018-06-13T06:46:33.898Z,575
2018-06-13T06:47:35.561Z,590
2018-06-13T06:48:37.222Z,585
2018-06-13T06:49:38.917Z,575
2018-06-13T06:50:40.548Z,565
2018-06-13T06:51:42.206Z,545
2018-06-13T06:52:43.883Z,530
2018-06-13T06:53:45.556Z,515
2018-06-13T06:54:47.212Z,525
2018-06-13T06:55:48.879Z,555
2018-06-13T06:56:50.548Z,550
2018-06-13T06:57:52.219Z,510
2018-06-13T06:58:53.880Z,495
2018-06-13T06:59:55.540Z,485
2018-06-13T07:00:57.213Z,470
2018-06-13T07:01:58.875Z,450
2018-06-13T07:03:00.568Z,430
2018-06-13T07:04:02.229Z,410
2018-06-13T07:05:03.895Z,395
2018-06-13T07:06:07.658Z,385
2018-06-13T07:07:10.410Z,375
2018-06-13T07:08:12.070Z,380
2018-06-13T07:09:13.723Z,390
2018-06-13T07:10:15.378Z,380
2018-06-13T07:11:17.050Z,355
2018-06-13T07:12:18.704Z,330
2018-06-13T07:13:20.371Z,315
2018-06-13T07:14:22.037Z,330
2018-06-13T07:15:23.701Z,315
2018-06-13T07:16:25.353Z,290
2018-06-13T07:17:27.016Z,315
2018-06-13T07:18:28.675Z,410
2018-06-13T07:19:30.335Z,430
2018-06-13T07:20:31.996Z,420
2018-06-13T07:21:33.664Z,410
2018-06-13T07:22:35.317Z,410
2018-06-13T07:23:37.100Z,410
2018-06-13T07:24:38.857Z,395
2018-06-13T07:25:40.464Z,380
2018-06-13T07:26:42.132Z,365
2018-06-13T07:27:43.797Z,350
2018-06-13T07:28:45.463Z,340
2018-06-13T07:29:47.138Z,330
2018-06-13T07:30:48.802Z,325
2018-06-13T07:31:50.464Z,305
2018-06-13T07:32:52.122Z,300
2018-06-13T07:33:53.774Z,305
2018-06-13T07:34:55.438Z,310
2018-06-13T07:35:57.126Z,325
2018-06-13T07:36:58.797Z,355
2018-06-13T07:38:00.478Z,360
2018-06-13T07:39:02.135Z,330
2018-06-13T07:40:03.798Z,290
2018-06-13T07:41:05.464Z,240
2018-06-13T07:42:07.139Z,200
2018-06-13T07:43:08.809Z,180
2018-06-13T07:44:10.636Z,170
2018-06-13T07:45:12.941Z,165
2018-06-13T07:46:14.605Z,170
2018-06-13T07:47:16.276Z,185
2018-06-13T07:48:17.945Z,185
2018-06-13T07:49:19.605Z,180
2018-06-13T07:50:21.277Z,200
2018-06-13T07:51:22.941Z,295
2018-06-13T07:52:24.599Z,440
2018-06-13T07:53:26.269Z,500
2018-06-13T07:54:27.931Z,525
2018-06-13T07:55:29.617Z,585
2018-06-13T07:56:31.277Z,660
2018-06-13T07:57:32.933Z,725
2018-06-13T07:58:34.597Z,950
2018-06-13T07:59:36.263Z,1305
2018-06-13T08:00:37.924Z,1280
2018-06-13T08:01:39.588Z,1245
2018-06-13T08:02:41.256Z,1245
2018-06-13T08:03:42.926Z,1270
2018-06-13T08:04:44.596Z,1310
2018-06-13T08:05:46.259Z,1485
2018-06-13T08:06:47.929Z,1370
2018-06-13T08:07:49.588Z,1345
2018-06-13T08:08:51.267Z,1345
2018-06-13T08:09:52.927Z,1435
2018-06-13T08:10:54.590Z,1715
2018-06-13T08:11:56.259Z,1245
2018-06-13T08:12:57.921Z,905
2018-06-13T08:13:59.587Z,810
2018-06-13T08:15:01.287Z,785
2018-06-13T08:16:02.948Z,725
2018-06-13T08:17:04.618Z,610
2018-06-13T08:18:06.291Z,500
2018-06-13T08:19:07.956Z,435
2018-06-13T08:20:09.627Z,360
2018-06-13T08:21:11.306Z,320
2018-06-13T08:22:12.971Z,330
2018-06-13T08:23:14.634Z,315
2018-06-13T08:24:16.300Z,315
2018-06-13T08:25:17.975Z,310
2018-06-13T08:26:19.649Z,285
2018-06-13T08:27:21.320Z,270
2018-06-13T08:28:22.979Z,275
2018-06-13T08:29:24.636Z,300
2018-06-13T08:30:26.306Z,280
2018-06-13T08:31:27.966Z,285
2018-06-13T08:32:29.627Z,335
2018-06-13T08:33:31.295Z,400
2018-06-13T08:34:32.965Z,485
2018-06-13T08:35:34.626Z,535
2018-06-13T08:36:36.287Z,560
2018-06-13T08:37:37.946Z,585
2018-06-13T08:38:39.616Z,630
2018-06-13T08:39:41.274Z,700
2018-06-13T08:40:43.520Z,780
2018-06-13T08:41:45.172Z,865
2018-06-13T08:42:46.842Z,945
2018-06-13T08:43:48.523Z,1020
2018-06-13T08:44:50.163Z,1090
2018-06-13T08:45:51.820Z,1120
2018-06-13T08:46:53.539Z,1135
2018-06-13T08:47:55.209Z,1145
2018-06-13T08:48:56.871Z,1185
2018-06-13T08:49:58.541Z,1230
2018-06-13T08:51:00.201Z,1250
2018-06-13T08:52:01.867Z,1265
2018-06-13T08:53:03.528Z,1280
2018-06-13T08:54:05.211Z,1305
2018-06-13T08:55:06.877Z,1340
2018-06-13T08:56:08.555Z,1385
2018-06-13T08:57:10.216Z,1320
2018-06-13T08:58:11.897Z,1275
2018-06-13T08:59:13.555Z,1150
2018-06-13T09:00:15.213Z,970
2018-06-13T09:01:16.889Z,925
2018-06-13T09:02:18.595Z,1030
2018-06-13T09:03:20.307Z,1085
2018-06-13T09:04:21.928Z,1020
2018-06-13T09:05:23.598Z,880
2018-06-13T09:06:25.270Z,740
2018-06-13T09:07:26.928Z,635
2018-06-13T09:08:28.599Z,560
2018-06-13T09:09:30.257Z,490
2018-06-13T09:10:31.927Z,435
2018-06-13T09:11:33.595Z,415
2018-06-13T09:12:35.261Z,425
2018-06-13T09:13:36.916Z,455
2018-06-13T09:14:38.594Z,470
2018-06-13T09:15:40.252Z,425
2018-06-13T09:16:41.919Z,375
2018-06-13T09:17:43.582Z,360
2018-06-13T09:18:45.271Z,370
2018-06-13T09:19:46.936Z,355
2018-06-13T09:20:48.604Z,330
2018-06-13T09:21:50.261Z,315
2018-06-13T09:22:51.922Z,300
2018-06-13T09:23:53.607Z,275
2018-06-13T09:24:55.274Z,255
2018-06-13T09:25:56.927Z,250
2018-06-13T09:26:58.586Z,255
2018-06-13T09:28:00.247Z,280
2018-06-13T09:29:01.915Z,320
2018-06-13T09:30:03.575Z,380
2018-06-13T09:31:05.238Z,455
2018-06-13T09:32:06.905Z,490
2018-06-13T09:33:08.568Z,520
2018-06-13T09:34:10.234Z,560
2018-06-13T09:35:11.904Z,610
2018-06-13T09:36:13.566Z,670
2018-06-13T09:37:15.224Z,710
2018-06-13T09:38:16.891Z,740
2018-06-13T09:39:18.556Z,770
2018-06-13T09:40:20.219Z,790
2018-06-13T09:41:21.881Z,790
2018-06-13T09:42:23.531Z,775
2018-06-13T09:43:25.194Z,745
2018-06-13T09:44:26.858Z,715
2018-06-13T09:45:28.525Z,685
2018-06-13T09:46:30.183Z,635
2018-06-13T09:47:31.846Z,585
2018-06-13T09:48:33.508Z,545
2018-06-13T09:49:35.166Z,515
2018-06-13T09:50:36.835Z,510
2018-06-13T09:51:39.413Z,495
2018-06-13T09:52:41.080Z,460
2018-06-13T09:53:42.741Z,435
2018-06-13T09:54:44.463Z,465
2018-06-13T10:01:33.482Z,890
2018-06-13T10:02:35.138Z,820
2018-06-13T10:04:26.949Z,695
2018-06-13T10:05:28.607Z,600
2018-06-13T10:07:20.516Z,420
2018-06-13T10:08:22.175Z,350
2018-06-13T10:10:13.980Z,310
2018-06-13T10:11:15.701Z,335
2018-06-13T10:13:07.594Z,405
2018-06-13T10:14:09.214Z,425
2018-06-13T10:16:01.136Z,465
2018-06-13T10:17:02.803Z,445
2018-06-13T10:18:04.463Z,415
2018-06-13T10:19:06.121Z,410
2018-06-13T10:20:07.783Z,400
2018-06-13T10:21:09.447Z,395
2018-06-13T10:22:11.153Z,390
2018-06-13T10:23:12.791Z,375
2018-06-13T10:24:14.483Z,360
2018-06-13T10:25:16.147Z,365
2018-06-13T10:26:17.817Z,350
2018-06-13T10:27:19.480Z,355
2018-06-13T10:28:21.144Z,370
2018-06-13T10:29:22.803Z,370
2018-06-13T10:30:24.477Z,360
2018-06-13T10:31:26.134Z,340
2018-06-13T10:32:27.800Z,320
2018-06-13T10:33:29.462Z,340
2018-06-13T10:34:31.126Z,380
2018-06-13T10:35:32.795Z,390
2018-06-13T10:36:34.462Z,380
2018-06-13T10:37:36.131Z,385
2018-06-13T10:38:37.793Z,405
2018-06-13T10:39:39.462Z,425
2018-06-13T10:40:41.129Z,425
2018-06-13T10:41:42.796Z,420
2018-06-13T10:42:44.450Z,415
2018-06-13T10:43:46.114Z,415
2018-06-13T10:44:47.795Z,410
2018-06-13T10:45:49.452Z,395
2018-06-13T10:46:51.133Z,385
2018-06-13T10:47:52.788Z,395
2018-06-13T10:48:54.454Z,425
2018-06-13T10:49:56.113Z,470
2018-06-13T10:50:57.777Z,520
2018-06-13T10:51:59.442Z,580
2018-06-13T10:53:01.172Z,635
2018-06-13T10:54:02.838Z,715
2018-06-13T10:55:04.507Z,805
2018-06-13T10:56:06.172Z,885
2018-06-13T10:57:07.863Z,945
2018-06-13T10:58:09.521Z,965
2018-06-13T10:59:11.196Z,935
2018-06-13T11:00:13.029Z,890
2018-06-13T11:01:14.922Z,805
2018-06-13T11:02:16.751Z,695
2018-06-13T11:03:18.406Z,595
2018-06-13T11:04:20.272Z,540
2018-06-13T11:05:22.938Z,505
2018-06-13T11:06:24.577Z,470
2018-06-13T11:07:26.247Z,465
2018-06-13T11:08:28.036Z,490
2018-06-13T11:09:29.942Z,535
2018-06-13T11:10:31.616Z,580
2018-06-13T11:11:33.525Z,580
2018-06-13T11:12:35.608Z,555
2018-06-13T11:13:37.589Z,525
2018-06-13T11:14:39.261Z,525
2018-06-13T11:15:40.945Z,550
2018-06-13T11:16:42.777Z,550
2018-06-13T11:17:44.825Z,585
2018-06-13T11:18:46.613Z,635
2018-06-13T11:19:48.333Z,700
2018-06-13T11:20:51.104Z,720
2018-06-13T11:21:52.769Z,700
2018-06-13T11:22:54.640Z,685
2018-06-13T11:23:56.314Z,635
2018-06-13T11:24:57.983Z,575
2018-06-13T11:25:59.648Z,545
2018-06-13T11:27:01.328Z,520
2018-06-13T11:28:03.119Z,515
2018-06-13T11:29:04.855Z,550
2018-06-13T11:30:06.661Z,565
2018-06-13T11:31:08.327Z,555
2018-06-13T11:32:10.128Z,520
2018-06-13T11:33:11.743Z,425
2018-06-13T11:34:13.493Z,345
2018-06-13T11:35:17.122Z,365
2018-06-13T11:36:18.759Z,425
2018-06-13T11:37:20.422Z,440
2018-06-13T11:38:22.087Z,450
2018-06-13T11:39:23.815Z,445
2018-06-13T11:40:25.487Z,450
2018-06-13T11:41:27.202Z,455
2018-06-13T11:42:28.833Z,465
2018-06-13T11:43:30.759Z,485
2018-06-13T11:44:32.493Z,510
2018-06-13T11:45:34.291Z,525
2018-06-13T11:46:35.992Z,530
2018-06-13T11:47:38.507Z,530
2018-06-13T11:48:40.356Z,555
2018-06-13T11:49:42.013Z,575
2018-06-13T11:50:43.688Z,590
2018-06-13T11:51:45.339Z,595
2018-06-13T11:52:47.052Z,610
2018-06-13T11:53:48.829Z,640
2018-06-13T11:54:50.791Z,655
2018-06-13T11:55:52.562Z,675
2018-06-13T11:56:54.284Z,720
2018-06-13T11:57:55.952Z,780
2018-06-13T11:58:57.754Z,810
2018-06-13T11:59:59.416Z,810
2018-06-13T12:01:01.297Z,775
2018-06-13T12:02:03.059Z,770
2018-06-13T12:03:04.794Z,770
2018-06-13T12:04:06.701Z,800
2018-06-13T12:05:08.369Z,865
2018-06-13T12:06:10.319Z,955
2018-06-13T12:07:12.059Z,1035
2018-06-13T12:08:13.733Z,1065
2018-06-13T12:09:15.412Z,1090
2018-06-13T12:10:17.076Z,1085
2018-06-13T12:11:18.777Z,1055
2018-06-13T12:12:20.430Z,1010
2018-06-13T12:13:22.132Z,980
2018-06-13T12:14:23.836Z,965
2018-06-13T12:15:25.592Z,985
2018-06-13T12:16:27.340Z,1010
2018-06-13T12:17:29.306Z,1020
2018-06-13T12:18:30.977Z,1045
2018-06-13T12:19:32.654Z,1065
2018-06-13T12:20:34.355Z,1065
2018-06-13T12:21:35.986Z,1085
2018-06-13T12:22:38.168Z,1095
2018-06-13T12:23:39.694Z,1110
2018-06-13T12:24:42.038Z,1140
2018-06-13T12:25:43.805Z,1170
2018-06-13T12:26:45.374Z,1180
2018-06-13T12:27:47.158Z,1185
2018-06-13T12:28:48.834Z,1195
2018-06-13T12:29:50.502Z,1215
2018-06-13T12:30:52.184Z,1215
2018-06-13T12:31:53.852Z,1215
2018-06-13T12:32:55.520Z,1170
2018-06-13T12:33:57.192Z,1095
2018-06-13T12:34:58.849Z,1050
2018-06-13T12:36:00.665Z,1015
2018-06-13T12:37:02.540Z,970
2018-06-13T12:38:04.205Z,945
2018-06-13T12:39:06.790Z,935
2018-06-13T12:40:08.468Z,950
2018-06-13T12:41:10.122Z,970
2018-06-13T12:42:12.187Z,965
2018-06-13T12:43:13.860Z,965
2018-06-13T12:44:15.538Z,990
2018-06-13T12:45:17.217Z,1065
2018-06-13T12:46:18.886Z,1105
2018-06-13T12:47:20.562Z,1110
2018-06-13T12:48:22.345Z,1100
2018-06-13T12:49:24.092Z,1070
2018-06-13T12:50:25.801Z,1030
2018-06-13T12:51:28.072Z,980
2018-06-13T12:52:29.819Z,915
2018-06-13T12:53:31.725Z,880
2018-06-13T12:54:33.485Z,830
2018-06-13T12:55:35.197Z,790
2018-06-13T12:56:36.881Z,805
2018-06-13T12:57:38.626Z,860
2018-06-13T12:58:40.443Z,890
2018-06-13T12:59:42.099Z,870
2018-06-13T13:00:43.769Z,805
2018-06-13T13:01:45.431Z,735
2018-06-13T13:02:47.179Z,700
2018-06-13T13:03:49.240Z,655
2018-06-13T13:04:51.262Z,620
2018-06-13T13:05:53.208Z,595
2018-06-13T13:06:55.447Z,555
2018-06-13T13:07:57.107Z,510
2018-06-13T13:08:58.782Z,460
2018-06-13T13:10:00.603Z,390
2018-06-13T13:11:02.266Z,325
2018-06-13T13:12:04.134Z,285
2018-06-13T13:13:05.939Z,250
2018-06-13T13:14:07.620Z,230
2018-06-13T13:15:09.333Z,235
2018-06-13T13:16:11.006Z,240
2018-06-13T13:17:12.806Z,235
2018-06-13T13:18:14.476Z,230
2018-06-13T13:19:16.152Z,230
2018-06-13T13:20:17.885Z,230
2018-06-13T13:21:19.672Z,240
2018-06-13T13:22:21.341Z,245
2018-06-13T13:23:23.013Z,240
2018-06-13T13:24:24.675Z,240
2018-06-13T13:25:26.736Z,260
2018-06-13T13:26:28.407Z,275
2018-06-13T13:27:30.230Z,285
2018-06-13T13:28:31.899Z,300
2018-06-13T13:29:33.741Z,290
2018-06-13T13:30:35.425Z,270
2018-06-13T13:31:37.176Z,300
2018-06-13T13:32:38.906Z,360
2018-06-13T13:33:40.640Z,395
2018-06-13T13:34:42.418Z,395
2018-06-13T13:35:44.148Z,410
2018-06-13T13:36:45.920Z,440
2018-06-13T13:37:47.596Z,485
2018-06-13T13:38:49.253Z,530
2018-06-13T13:39:50.920Z,600
2018-06-13T13:40:52.593Z,665
2018-06-13T13:41:54.262Z,740
2018-06-13T13:42:55.980Z,805
2018-06-13T13:43:57.648Z,870
2018-06-13T13:44:59.312Z,940
2018-06-13T13:46:01.039Z,1010
2018-06-13T13:47:03.667Z,1080
2018-06-13T13:48:05.334Z,1175
2018-06-13T13:49:07.012Z,1270
2018-06-13T13:50:08.699Z,1370
2018-06-13T13:51:10.359Z,1515
2018-06-13T13:52:12.029Z,1970
2018-06-13T13:53:13.692Z,1840
2018-06-13T13:54:15.613Z,1610
2018-06-13T13:55:17.244Z,1390
2018-06-13T14:01:06.205Z,830
2018-06-13T14:02:07.855Z,750
2018-06-13T14:03:59.707Z,590
2018-06-13T14:05:01.590Z,520
2018-06-13T14:06:53.505Z,435
2018-06-13T14:07:55.507Z,405
2018-06-13T14:09:47.355Z,330
2018-06-13T14:10:49.016Z,290
2018-06-13T14:12:41.675Z,250
2018-06-13T14:13:43.339Z,240
2018-06-13T14:15:35.198Z,220
2018-06-13T14:16:36.864Z,210
2018-06-13T14:18:28.688Z,205
2018-06-13T14:19:30.357Z,200
2018-06-13T14:21:22.237Z,190
2018-06-13T14:22:23.998Z,195
2018-06-13T14:24:15.820Z,195
2018-06-13T14:25:17.485Z,185
2018-06-13T14:27:09.374Z,180
2018-06-13T14:28:11.040Z,175
2018-06-13T14:29:12.708Z,170
2018-06-13T14:30:14.368Z,170
2018-06-13T14:31:16.033Z,170
2018-06-13T14:32:17.704Z,180
2018-06-13T14:33:19.365Z,195
2018-06-13T14:34:21.025Z,215
2018-06-13T14:35:22.697Z,220
2018-06-13T14:36:24.373Z,230
2018-06-13T14:37:26.038Z,230
2018-06-13T14:38:27.699Z,240
2018-06-13T14:39:29.364Z,255
2018-06-13T14:40:31.025Z,275
2018-06-13T14:41:32.700Z,315
2018-06-13T14:42:34.358Z,370
2018-06-13T14:43:36.018Z,405
2018-06-13T14:44:37.702Z,460
2018-06-13T14:45:39.369Z,515
2018-06-13T14:46:41.032Z,570
2018-06-13T14:47:42.715Z,630
2018-06-13T14:48:44.398Z,680
2018-06-13T14:49:46.066Z,740
2018-06-13T14:50:47.737Z,765
2018-06-13T14:51:49.406Z,815
2018-06-13T14:52:51.067Z,875
2018-06-13T14:53:52.737Z,940
2018-06-13T14:54:54.416Z,975
2018-06-13T14:55:56.092Z,1010
2018-06-13T14:56:57.748Z,1060
2018-06-13T14:57:59.430Z,1075
2018-06-13T14:59:01.115Z,1090
2018-06-13T15:00:02.783Z,1100
2018-06-13T15:01:04.458Z,1110
2018-06-13T15:02:06.148Z,1155
2018-06-13T15:03:07.818Z,1220
2018-06-13T15:04:09.494Z,1300